Airfield :
LOGIN :

Register | Disclaimer

   EN    FR    IT 

 










Legend :    VFR   Marginal VFR   IFR   Intensive IFR   Very Intensive IFR
Visi :
Ceiling :
>= 8 km
>= 3000ft
5 to 8 km
1000 to 3000 ft
1500m to 5 km
500 to 1000 ft
800 to 1500m
200 to 500 ft
< 800m
< 200 ft
Symbols :   Thunderstorms  Fog  Heavy snow  Heavy precipitations  Wind > 20 kt
SIGMETs :     Misc.  Thunderstorms  Icing  Turbulence  Mountain Waves  Volcanic Ashes






- Airport Elevation : 407 ft


EGDM - MoD Boscombe Down Amesbury

CURRENT METAR :
  • 241150Z AUTO 14001KT 9999 -RA FEW008/// SCT030/// 06/04 Q0994

EXPIRED METARs :
  • 241120Z AUTO 21002KT 1100 BR SCT004/// SCT030/// OVC076/// 05/04 Q0994
  • 241050Z AUTO 13002KT 9999 SCT072/// SCT086/// OVC100/// 04/04 Q0994
  • 241020Z AUTO 11003KT 9999 // SCT085/// OVC100/// 03/03 Q0993
  • 240950Z AUTO 13004KT 9999 // SCT016/// SCT025/// OVC099/// 03/03 Q0993
  • 240920Z AUTO 09004KT 9000 RADZ FEW017/// OVC025/// 02/01 Q0993
  • 240850Z AUTO 08005KT 7000 -RADZ FEW017/// OVC023/// 00/00 Q0993
  • 240820Z AUTO 08005KT 9999 SCT040/// BKN049/// 00/00 Q0993
  • 240750Z AUTO 08006KT 9999 SCT049/// BKN140/// M00/M01 Q0993
  • 240720Z AUTO 08007KT 9999 FEW043/// BKN210/// M01/M01 Q0992

Expired Forecast.



MET'MAP, your aeronautical weather chart ! - Copyright ORBIFLY December 2007 - Disclaimer

ORBIFLY MET'MAP TEAM :

Programming & Development : Alexandra Zaïnal
Original concept : Baudouin d'Aumeries
Technical & hardware support : Manuel Goepfert
Assistance : Marc-Olivier Méhu




SOURCES & CREDITS :

   NOAA